createdAt,value
2023-04-02T00:00:18.900Z,69.00
2023-04-02T00:02:20.529Z,69.00
2023-04-02T00:04:22.908Z,69.10
2023-04-02T00:06:32.657Z,69.30
2023-04-02T00:08:38.972Z,69.30
2023-04-02T00:10:47.804Z,69.40
2023-04-02T00:12:59.638Z,69.40
2023-04-02T00:15:01.719Z,69.30
2023-04-02T00:17:04.664Z,69.40
2023-04-02T00:19:07.595Z,69.50
2023-04-02T00:21:22.857Z,69.50
2023-04-02T00:23:24.589Z,69.70
2023-04-02T00:25:27.984Z,69.80
2023-04-02T00:27:30.990Z,69.80
2023-04-02T00:29:32.632Z,69.80
2023-04-02T00:31:34.855Z,69.70
2023-04-02T00:33:37.649Z,69.50
2023-04-02T00:35:39.444Z,69.50
2023-04-02T00:37:41.993Z,69.50
2023-04-02T00:39:43.968Z,69.60
2023-04-02T00:41:48.627Z,69.50
2023-04-02T00:43:54.610Z,69.70
2023-04-02T00:46:01.363Z,69.20
2023-04-02T00:48:14.383Z,69.30
2023-04-02T00:50:22.087Z,69.40
2023-04-02T00:52:27.071Z,69.40
2023-04-02T00:54:31.281Z,69.60
2023-04-02T00:56:40.906Z,69.60
2023-04-02T00:58:42.977Z,69.80
2023-04-02T01:00:48.935Z,69.80
2023-04-02T01:03:11.142Z,69.80
2023-04-02T01:05:13.526Z,69.80
2023-04-02T01:07:15.743Z,69.70
2023-04-02T01:09:42.251Z,69.80
2023-04-02T01:12:03.005Z,69.80
2023-04-02T01:14:40.344Z,69.80
2023-04-02T01:16:50.695Z,70.00
2023-04-02T01:19:13.760Z,70.10
2023-04-02T01:21:37.270Z,69.80
2023-04-02T01:23:46.427Z,69.80
2023-04-02T01:25:51.874Z,69.80
2023-04-02T01:27:57.191Z,69.70
2023-04-02T01:30:00.513Z,69.80
2023-04-02T01:32:04.261Z,69.70
2023-04-02T01:34:07.433Z,69.70
2023-04-02T01:36:29.355Z,69.70
2023-04-02T01:38:37.249Z,69.50
2023-04-02T01:40:42.269Z,69.50
2023-04-02T01:42:47.594Z,69.50
2023-04-02T01:45:07.754Z,69.60
2023-04-02T01:47:13.505Z,69.50
2023-04-02T01:49:18.033Z,69.50
2023-04-02T01:51:30.444Z,69.50
2023-04-02T01:53:32.528Z,69.50
2023-04-02T01:55:40.388Z,69.50
2023-04-02T01:57:44.766Z,69.70
2023-04-02T01:59:46.517Z,69.80
2023-04-02T02:01:58.995Z,69.90
2023-04-02T02:04:01.838Z,70.10
2023-04-02T02:06:05.579Z,70.00
2023-04-02T02:08:13.181Z,69.90
2023-04-02T02:10:16.437Z,69.80
2023-04-02T02:12:18.146Z,69.80
2023-04-02T02:14:24.631Z,69.80
2023-04-02T02:16:28.032Z,69.90
2023-04-02T02:18:30.487Z,70.00
2023-04-02T02:20:33.366Z,69.90
2023-04-02T02:22:37.017Z,69.90
2023-04-02T02:24:38.936Z,69.70
2023-04-02T02:26:41.308Z,69.80
2023-04-02T02:28:45.858Z,69.80
2023-04-02T02:30:53.449Z,69.90
2023-04-02T02:33:01.029Z,70.30
2023-04-02T02:35:11.235Z,70.20
2023-04-02T02:37:16.316Z,70.10
2023-04-02T02:39:22.384Z,70.10
2023-04-02T02:41:35.341Z,70.10
2023-04-02T02:43:38.633Z,70.10
2023-04-02T02:45:41.340Z,70.00
2023-04-02T02:47:43.868Z,70.00
2023-04-02T02:49:49.804Z,70.00
2023-04-02T02:51:57.501Z,70.00
2023-04-02T02:54:05.425Z,70.00
2023-04-02T02:56:10.809Z,69.90
2023-04-02T02:58:20.247Z,69.80
2023-04-02T03:00:33.593Z,69.90
2023-04-02T03:02:39.944Z,69.90
2023-04-02T03:04:52.904Z,69.90
2023-04-02T03:06:57.273Z,69.90
2023-04-02T03:09:37.731Z,69.90
2023-04-02T03:11:39.324Z,70.00
2023-04-02T03:13:46.634Z,70.00
2023-04-02T03:16:07.788Z,70.10
2023-04-02T03:18:12.415Z,70.30
2023-04-02T03:20:33.441Z,70.20
2023-04-02T03:22:40.997Z,70.10
2023-04-02T03:24:43.281Z,70.10
2023-04-02T03:27:03.607Z,70.20
2023-04-02T03:29:14.179Z,70.00
2023-04-02T03:31:19.703Z,70.20
2023-04-02T03:33:27.208Z,70.10
2023-04-02T03:35:52.816Z,70.10
2023-04-02T03:37:58.400Z,70.10
2023-04-02T03:40:04.461Z,70.20
2023-04-02T03:42:25.071Z,70.10
2023-04-02T03:44:34.481Z,70.10
2023-04-02T03:46:44.690Z,70.20
2023-04-02T03:48:50.189Z,70.10
2023-04-02T03:50:52.554Z,70.10
2023-04-02T03:52:54.659Z,70.00
2023-04-02T03:54:57.465Z,70.00
2023-04-02T03:56:59.372Z,70.00
2023-04-02T03:59:05.607Z,69.90
2023-04-02T04:01:26.327Z,69.80
2023-04-02T04:03:37.196Z,69.90
2023-04-02T04:05:46.486Z,70.20
2023-04-02T04:07:51.245Z,70.10
2023-04-02T04:09:53.306Z,70.00
2023-04-02T04:12:01.946Z,70.10
2023-04-02T04:14:13.510Z,70.10
2023-04-02T04:16:18.462Z,70.20
2023-04-02T04:18:34.893Z,70.10
2023-04-02T04:20:56.481Z,70.20
2023-04-02T04:23:29.937Z,70.20
2023-04-02T04:25:33.876Z,70.10
2023-04-02T04:28:05.666Z,70.00
2023-04-02T04:30:18.259Z,70.00
2023-04-02T04:32:27.556Z,69.90
2023-04-02T04:34:46.599Z,70.00
2023-04-02T04:36:54.632Z,69.90
2023-04-02T04:39:07.427Z,70.00
2023-04-02T04:41:15.925Z,70.10
2023-04-02T04:43:46.968Z,70.00
2023-04-02T04:45:54.391Z,70.10
2023-04-02T04:47:59.899Z,70.20
2023-04-02T04:50:12.736Z,70.20
2023-04-02T04:52:21.010Z,70.30
2023-04-02T04:54:25.376Z,70.40
2023-04-02T04:56:30.594Z,70.40
2023-04-02T04:58:53.776Z,70.50
2023-04-02T05:01:12.239Z,70.40
2023-04-02T05:03:17.070Z,70.30
2023-04-02T05:05:21.564Z,70.30
2023-04-02T05:07:29.687Z,70.20
2023-04-02T05:09:49.745Z,70.20
2023-04-02T05:12:07.431Z,70.20
2023-04-02T05:14:22.308Z,70.10
2023-04-02T05:16:38.928Z,70.10
2023-04-02T05:18:49.135Z,70.10
2023-04-02T05:21:00.314Z,70.20
2023-04-02T05:23:06.097Z,70.20
2023-04-02T05:25:16.841Z,70.20
2023-04-02T05:27:23.319Z,70.10
2023-04-02T05:29:28.512Z,70.10
2023-04-02T05:31:49.233Z,70.20
2023-04-02T05:33:52.691Z,70.20
2023-04-02T05:36:00.104Z,70.00
2023-04-02T05:38:02.047Z,70.00
2023-04-02T05:40:10.991Z,70.10
2023-04-02T05:42:23.813Z,70.00
2023-04-02T05:44:36.310Z,70.00
2023-04-02T05:46:47.433Z,70.00
2023-04-02T05:48:51.776Z,70.10
2023-04-02T05:50:55.476Z,70.00
2023-04-02T05:53:06.983Z,70.00
2023-04-02T05:55:11.427Z,70.10
2023-04-02T05:57:16.230Z,70.10
2023-04-02T05:59:21.668Z,69.70
2023-04-02T06:01:29.976Z,70.00
2023-04-02T06:03:39.486Z,70.00
2023-04-02T06:05:42.933Z,70.00
2023-04-02T06:07:47.740Z,70.10
2023-04-02T06:09:50.848Z,70.10
2023-04-02T06:12:11.432Z,70.10
2023-04-02T06:14:14.011Z,70.10
2023-04-02T06:16:16.553Z,70.20
2023-04-02T06:18:19.753Z,70.30
2023-04-02T06:20:22.845Z,70.40
2023-04-02T06:22:34.444Z,70.40
2023-04-02T06:24:38.648Z,70.50
2023-04-02T06:26:43.419Z,70.40
2023-04-02T06:28:55.689Z,70.40
2023-04-02T06:31:03.219Z,70.10
2023-04-02T06:33:11.435Z,70.10
2023-04-02T06:35:14.707Z,70.00
2023-04-02T06:37:33.216Z,70.00
2023-04-02T06:39:49.032Z,70.10
2023-04-02T06:42:04.242Z,70.00
2023-04-02T06:44:28.050Z,70.10
2023-04-02T06:46:52.416Z,70.20
2023-04-02T06:48:59.270Z,70.20
2023-04-02T06:51:03.756Z,70.20
2023-04-02T06:53:09.518Z,70.30
2023-04-02T06:55:20.794Z,70.40
2023-04-02T06:57:22.631Z,70.40
2023-04-02T06:59:25.204Z,70.40
2023-04-02T07:01:28.964Z,70.80
2023-04-02T07:03:31.805Z,70.20
2023-04-02T07:05:41.109Z,70.30
2023-04-02T07:07:45.933Z,70.40
2023-04-02T07:09:47.781Z,70.50
2023-04-02T07:11:50.041Z,71.20
2023-04-02T07:13:53.422Z,70.40
2023-04-02T07:15:55.601Z,70.40
2023-04-02T07:17:59.173Z,70.40
2023-04-02T07:20:01.375Z,70.50
2023-04-02T07:22:03.148Z,70.50
2023-04-02T07:24:10.319Z,70.40
2023-04-02T07:26:16.771Z,70.30
2023-04-02T07:28:19.196Z,70.50
2023-04-02T07:30:22.017Z,70.50
2023-04-02T07:32:23.653Z,70.60
2023-04-02T07:34:25.287Z,70.60
2023-04-02T07:36:28.120Z,70.70
2023-04-02T07:38:29.892Z,70.70
2023-04-02T07:40:31.528Z,70.70
2023-04-02T07:42:33.196Z,70.70
2023-04-02T07:44:34.857Z,70.70
2023-04-02T07:46:36.509Z,70.80
2023-04-02T07:48:38.242Z,70.80
2023-04-02T07:50:39.937Z,70.80
2023-04-02T07:52:42.532Z,70.80
2023-04-02T07:54:44.569Z,70.90
2023-04-02T07:56:46.458Z,71.00
2023-04-02T07:58:48.290Z,71.00
2023-04-02T08:00:50.027Z,70.80
2023-04-02T08:02:51.994Z,70.90
2023-04-02T08:04:53.706Z,70.90
2023-04-02T08:06:55.396Z,71.00
2023-04-02T08:08:57.554Z,70.90
2023-04-02T08:10:59.266Z,71.00
2023-04-02T08:13:00.976Z,70.90
2023-04-02T08:15:03.552Z,71.00
2023-04-02T08:17:05.507Z,71.10
2023-04-02T08:19:07.146Z,70.90
2023-04-02T08:21:09.833Z,71.00
2023-04-02T08:23:16.927Z,70.90
2023-04-02T08:25:18.585Z,70.90
2023-04-02T08:27:20.355Z,70.90
2023-04-02T08:29:22.133Z,70.90
2023-04-02T08:31:24.475Z,70.90
2023-04-02T08:33:26.453Z,70.90
2023-04-02T08:35:28.099Z,70.80
2023-04-02T08:37:29.793Z,70.80
2023-04-02T08:39:35.243Z,70.80
2023-04-02T08:41:39.109Z,70.90
2023-04-02T08:43:41.833Z,70.90
2023-04-02T08:45:52.550Z,71.00
2023-04-02T08:47:56.449Z,71.10
2023-04-02T08:50:00.823Z,71.00
2023-04-02T08:52:02.533Z,71.10
2023-04-02T08:54:25.503Z,71.10
2023-04-02T08:56:30.619Z,71.10
2023-04-02T08:58:37.740Z,71.30
2023-04-02T09:00:41.609Z,71.20
2023-04-02T09:02:47.303Z,71.20
2023-04-02T09:04:49.219Z,71.10
2023-04-02T09:06:52.383Z,71.10
2023-04-02T09:08:54.292Z,71.10
2023-04-02T09:11:02.315Z,70.90
2023-04-02T09:13:07.879Z,70.80
2023-04-02T09:15:18.269Z,70.80
2023-04-02T09:17:21.719Z,70.80
2023-04-02T09:19:31.363Z,70.80
2023-04-02T09:21:34.880Z,70.90
2023-04-02T09:23:36.664Z,70.80
2023-04-02T09:25:43.411Z,70.70
2023-04-02T09:27:47.949Z,70.70
2023-04-02T09:29:52.936Z,70.60
2023-04-02T09:32:05.234Z,70.60
2023-04-02T09:34:26.052Z,70.50
2023-04-02T09:36:33.986Z,70.50
2023-04-02T09:38:35.697Z,70.50
2023-04-02T09:40:43.818Z,70.50
2023-04-02T09:42:45.582Z,70.70
2023-04-02T09:44:47.312Z,70.70
2023-04-02T09:46:51.212Z,70.70
2023-04-02T09:48:54.436Z,70.70
2023-04-02T09:51:03.869Z,70.70
2023-04-02T09:53:24.972Z,70.70
2023-04-02T09:55:28.994Z,70.60
2023-04-02T09:57:32.830Z,70.60
2023-04-02T09:59:34.588Z,70.50
2023-04-02T10:01:37.499Z,70.50
2023-04-02T10:03:42.943Z,70.50
2023-04-02T10:05:46.598Z,70.50
2023-04-02T10:07:50.881Z,70.50
2023-04-02T10:09:57.813Z,70.50
2023-04-02T10:12:00.752Z,70.50
2023-04-02T10:14:16.126Z,70.50
2023-04-02T10:16:24.949Z,70.50
2023-04-02T10:18:36.898Z,70.50
2023-04-02T10:20:51.579Z,70.40
2023-04-02T10:22:53.396Z,70.50
2023-04-02T10:24:55.399Z,70.50
2023-04-02T10:27:03.040Z,70.60
2023-04-02T10:29:07.711Z,70.60
2023-04-02T10:31:17.377Z,70.60
2023-04-02T10:33:25.110Z,70.70
2023-04-02T10:35:45.809Z,70.60
2023-04-02T10:38:07.100Z,70.60
2023-04-02T10:40:17.657Z,70.60
2023-04-02T10:42:22.595Z,70.70
2023-04-02T10:44:27.016Z,70.70
2023-04-02T10:46:47.403Z,70.70
2023-04-02T10:48:57.230Z,70.60
2023-04-02T10:51:17.930Z,70.50
2023-04-02T10:53:21.340Z,70.50
2023-04-02T10:55:31.241Z,70.40
2023-04-02T10:57:38.071Z,70.30
2023-04-02T10:59:44.207Z,70.30
2023-04-02T11:01:47.307Z,70.30
2023-04-02T11:03:54.903Z,70.20
2023-04-02T11:06:00.540Z,70.00
2023-04-02T11:08:05.043Z,70.00
2023-04-02T11:10:07.366Z,70.20
2023-04-02T11:12:17.058Z,70.20
2023-04-02T11:14:23.994Z,70.30
2023-04-02T11:16:27.504Z,70.20
2023-04-02T11:18:34.317Z,70.20
2023-04-02T11:20:48.550Z,70.30
2023-04-02T11:23:04.894Z,70.30
2023-04-02T11:25:20.567Z,70.40
2023-04-02T11:27:29.897Z,70.40
2023-04-02T11:29:32.309Z,70.40
2023-04-02T11:31:34.542Z,70.20
2023-04-02T11:33:44.293Z,70.20
2023-04-02T11:35:47.378Z,69.70
2023-04-02T11:37:49.179Z,69.40
2023-04-02T11:39:55.288Z,69.20
2023-04-02T11:42:01.095Z,69.00
2023-04-02T11:44:02.937Z,69.10
2023-04-02T11:46:06.527Z,69.20
2023-04-02T11:48:17.146Z,69.30
2023-04-02T11:50:38.880Z,69.40
2023-04-02T11:52:46.764Z,69.50
2023-04-02T11:54:55.954Z,69.50
2023-04-02T11:57:21.669Z,69.40
2023-04-02T11:59:23.749Z,69.40
2023-04-02T12:01:25.490Z,69.50
2023-04-02T12:03:30.451Z,69.60
2023-04-02T12:05:46.903Z,69.50
2023-04-02T12:07:55.853Z,69.70
2023-04-02T12:09:59.218Z,69.70
2023-04-02T12:12:15.032Z,69.80
2023-04-02T12:14:31.899Z,69.70
2023-04-02T12:16:34.526Z,69.70
2023-04-02T12:18:41.654Z,69.90
2023-04-02T12:20:47.257Z,69.90
2023-04-02T12:22:50.982Z,69.90
2023-04-02T12:24:54.178Z,70.10
2023-04-02T12:27:27.718Z,70.00
2023-04-02T12:29:29.695Z,69.90
2023-04-02T12:31:33.534Z,69.80
2023-04-02T12:33:37.307Z,69.80
2023-04-02T12:35:41.105Z,69.80
2023-04-02T12:37:42.885Z,69.80
2023-04-02T12:39:51.053Z,69.80
2023-04-02T12:41:53.088Z,69.80
2023-04-02T12:44:06.441Z,69.80
2023-04-02T12:46:09.007Z,69.80
2023-04-02T12:48:11.628Z,69.80
2023-04-02T12:50:14.949Z,69.70
2023-04-02T12:52:18.607Z,69.60
2023-04-02T12:54:21.024Z,69.60
2023-04-02T12:56:23.243Z,69.60
2023-04-02T12:58:27.900Z,69.50
2023-04-02T13:00:31.116Z,69.50
2023-04-02T13:02:42.738Z,69.50
2023-04-02T13:04:51.808Z,69.50
2023-04-02T13:06:56.572Z,69.40
2023-04-02T13:08:59.002Z,69.30
2023-04-02T13:11:01.625Z,69.20
2023-04-02T13:13:03.406Z,69.10
2023-04-02T13:15:27.190Z,69.10
2023-04-02T13:17:40.454Z,69.20
2023-04-02T13:19:42.278Z,69.00
2023-04-02T13:21:44.611Z,69.00
2023-04-02T13:23:46.620Z,69.10
2023-04-02T13:25:48.385Z,69.30
2023-04-02T13:27:50.845Z,69.20
2023-04-02T13:29:52.520Z,69.30
2023-04-02T13:31:55.822Z,69.40
2023-04-02T13:33:58.292Z,69.40
2023-04-02T13:36:00.097Z,69.50
2023-04-02T13:38:03.106Z,69.50
2023-04-02T13:40:06.163Z,69.40
2023-04-02T13:42:10.923Z,69.40
2023-04-02T13:44:23.752Z,69.40
2023-04-02T13:46:32.766Z,69.30
2023-04-02T13:48:34.517Z,69.40
2023-04-02T13:50:36.453Z,69.30
2023-04-02T13:52:38.426Z,69.30
2023-04-02T13:54:44.921Z,69.20
2023-04-02T13:56:46.693Z,69.10
2023-04-02T13:58:48.407Z,69.10
2023-04-02T14:00:50.386Z,68.90
2023-04-02T14:02:58.703Z,68.90
2023-04-02T14:05:15.729Z,68.50
2023-04-02T14:07:20.451Z,68.50
2023-04-02T14:09:27.338Z,68.70
2023-04-02T14:11:37.987Z,68.70
2023-04-02T14:13:39.676Z,68.80
2023-04-02T14:15:44.672Z,68.90
2023-04-02T14:18:22.008Z,68.80
2023-04-02T14:20:42.245Z,68.70
2023-04-02T14:22:59.031Z,68.40
2023-04-02T14:25:07.766Z,68.50
2023-04-02T14:27:15.856Z,68.60
2023-04-02T14:29:31.628Z,68.40
2023-04-02T14:31:34.743Z,68.50
2023-04-02T14:33:51.491Z,68.50
2023-04-02T14:35:58.769Z,68.40
2023-04-02T14:38:03.299Z,68.50
2023-04-02T14:40:11.447Z,68.60
2023-04-02T14:42:18.320Z,68.60
2023-04-02T14:44:21.657Z,68.70
2023-04-02T14:46:26.856Z,68.80
2023-04-02T14:48:28.665Z,68.60
2023-04-02T14:50:37.510Z,68.50
2023-04-02T14:52:42.131Z,68.50
2023-04-02T14:54:55.304Z,68.50
2023-04-02T14:56:58.546Z,68.50
2023-04-02T14:59:15.364Z,68.50
2023-04-02T15:01:20.006Z,68.40
2023-04-02T15:03:24.098Z,68.40
2023-04-02T15:05:44.324Z,68.40
2023-04-02T15:07:52.079Z,68.30
2023-04-02T15:09:59.165Z,68.20
2023-04-02T15:12:03.951Z,68.30
2023-04-02T15:14:14.818Z,68.30
2023-04-02T15:16:19.413Z,68.20
2023-04-02T15:18:21.170Z,68.20
2023-04-02T15:20:22.948Z,68.20
2023-04-02T15:22:34.471Z,68.20
2023-04-02T15:24:40.419Z,68.10
2023-04-02T15:26:51.709Z,68.20
2023-04-02T15:29:03.982Z,68.10
2023-04-02T15:31:09.836Z,68.20
2023-04-02T15:33:29.922Z,68.20
2023-04-02T15:35:34.735Z,68.10
2023-04-02T15:37:51.699Z,68.20
2023-04-02T15:40:12.115Z,68.10
2023-04-02T15:42:43.331Z,68.20
2023-04-02T15:44:58.862Z,68.10
2023-04-02T15:47:27.064Z,67.90
2023-04-02T15:49:37.749Z,67.80
2023-04-02T15:52:15.077Z,67.80
2023-04-02T15:54:26.944Z,67.60
2023-04-02T15:56:35.957Z,67.70
2023-04-02T15:58:52.882Z,68.00
2023-04-02T16:01:03.776Z,68.00
2023-04-02T16:03:27.638Z,67.90
2023-04-02T16:05:29.484Z,67.50
2023-04-02T16:07:51.504Z,67.50
2023-04-02T16:09:59.965Z,67.60
2023-04-02T16:12:11.786Z,67.90
2023-04-02T16:14:26.174Z,67.90
2023-04-02T16:16:32.808Z,68.00
2023-04-02T16:18:53.606Z,67.80
2023-04-02T16:20:57.286Z,67.90
2023-04-02T16:23:01.796Z,67.70
2023-04-02T16:25:16.792Z,67.60
2023-04-02T16:27:24.613Z,67.50
2023-04-02T16:29:26.336Z,67.50
2023-04-02T16:31:34.174Z,67.60
2023-04-02T16:34:02.392Z,67.60
2023-04-02T16:36:12.006Z,67.60
2023-04-02T16:38:31.845Z,67.80
2023-04-02T16:40:43.396Z,67.60
2023-04-02T16:42:49.956Z,67.00
2023-04-02T16:45:01.839Z,67.10
2023-04-02T16:47:12.595Z,67.10
2023-04-02T16:49:28.695Z,67.00
2023-04-02T16:51:36.451Z,67.10
2023-04-02T16:54:05.545Z,67.20
2023-04-02T16:56:19.773Z,67.20
2023-04-02T16:58:27.135Z,66.90
2023-04-02T17:00:35.218Z,66.90
2023-04-02T17:02:37.297Z,67.00
2023-04-02T17:04:53.589Z,66.90
2023-04-02T17:06:55.451Z,67.00
2023-04-02T17:09:03.412Z,67.10
2023-04-02T17:11:24.302Z,66.70
2023-04-02T17:13:26.037Z,66.80
2023-04-02T17:15:28.823Z,66.70
2023-04-02T17:17:30.755Z,66.60
2023-04-02T17:19:32.985Z,66.60
2023-04-02T17:21:35.281Z,66.80
2023-04-02T17:24:03.120Z,66.70
2023-04-02T17:26:09.017Z,66.60
2023-04-02T17:28:15.850Z,66.50
2023-04-02T17:30:20.041Z,66.80
2023-04-02T17:32:24.269Z,67.00
2023-04-02T17:34:26.258Z,66.90
2023-04-02T17:36:34.163Z,67.00
2023-04-02T17:38:54.690Z,66.80
2023-04-02T17:40:56.416Z,66.50
2023-04-02T17:43:27.038Z,66.40
2023-04-02T17:45:44.374Z,66.60
2023-04-02T17:48:03.286Z,66.20
2023-04-02T17:50:17.263Z,66.20
2023-04-02T17:52:39.286Z,66.10
2023-04-02T17:54:51.521Z,66.10
2023-04-02T17:57:02.237Z,66.00
2023-04-02T17:59:07.985Z,66.10
2023-04-02T18:01:19.084Z,65.70
2023-04-02T18:03:21.311Z,65.80
2023-04-02T18:05:41.935Z,65.80
2023-04-02T18:07:43.683Z,65.60
2023-04-02T18:09:45.636Z,65.60
2023-04-02T18:11:56.367Z,65.10
2023-04-02T18:13:58.185Z,65.20
2023-04-02T18:16:15.076Z,65.20
2023-04-02T18:18:30.703Z,65.10
2023-04-02T18:20:39.382Z,65.40
2023-04-02T18:22:41.282Z,65.50
2023-04-02T18:24:43.132Z,65.50
2023-04-02T18:26:54.054Z,65.50
2023-04-02T18:29:04.730Z,65.60
2023-04-02T18:31:09.271Z,65.60
2023-04-02T18:33:13.847Z,65.30
2023-04-02T18:35:15.883Z,65.50
2023-04-02T18:37:20.506Z,65.20
2023-04-02T18:39:34.210Z,65.80
2023-04-02T18:41:45.949Z,65.10
2023-04-02T18:43:53.855Z,65.00
2023-04-02T18:46:05.589Z,64.70
2023-04-02T18:48:07.570Z,64.80
2023-04-02T18:50:21.868Z,64.90
2023-04-02T18:52:24.785Z,65.00
2023-04-02T18:54:36.827Z,65.10
2023-04-02T18:56:39.285Z,65.20
2023-04-02T18:58:46.361Z,65.20
2023-04-02T19:00:49.952Z,65.40
2023-04-02T19:03:12.523Z,65.40
2023-04-02T19:05:28.230Z,65.20
2023-04-02T19:07:33.648Z,65.10
2023-04-02T19:09:38.506Z,65.00
2023-04-02T19:11:40.873Z,64.80
2023-04-02T19:13:44.999Z,64.80
2023-04-02T19:16:01.980Z,64.90
2023-04-02T19:18:11.312Z,65.00
2023-04-02T19:20:18.727Z,64.80
2023-04-02T19:22:46.569Z,64.30
2023-04-02T19:25:10.888Z,64.30
2023-04-02T19:27:21.613Z,62.90
2023-04-02T19:29:33.213Z,63.30
2023-04-02T19:31:58.276Z,63.40
2023-04-02T19:34:00.180Z,62.80
2023-04-02T19:36:22.259Z,62.20
2023-04-02T19:38:24.200Z,62.70
2023-04-02T19:40:52.353Z,62.80
2023-04-02T19:42:54.627Z,63.00
2023-04-02T19:44:56.629Z,61.30
2023-04-02T19:46:58.479Z,62.00
2023-04-02T19:49:12.480Z,62.00
2023-04-02T19:51:14.287Z,62.30
2023-04-02T19:53:16.468Z,61.80
2023-04-02T19:55:18.266Z,61.70
2023-04-02T19:57:19.979Z,62.00
2023-04-02T19:59:21.796Z,62.50
2023-04-02T20:01:23.556Z,63.00
2023-04-02T20:03:25.474Z,62.60
2023-04-02T20:05:27.190Z,62.70
2023-04-02T20:07:30.697Z,61.20
2023-04-02T20:09:32.466Z,62.10
2023-04-02T20:11:35.010Z,62.40
2023-04-02T20:13:37.079Z,62.40
2023-04-02T20:15:39.489Z,61.80
2023-04-02T20:17:41.391Z,61.70
2023-04-02T20:19:43.150Z,60.70
2023-04-02T20:21:44.821Z,61.70
2023-04-02T20:23:46.654Z,62.20
2023-04-02T20:25:53.008Z,62.30
2023-04-02T20:27:54.870Z,62.70
2023-04-02T20:29:57.082Z,62.90
2023-04-02T20:31:58.957Z,62.70
2023-04-02T20:34:02.555Z,62.80
2023-04-02T20:36:06.446Z,62.90
2023-04-02T20:38:09.020Z,62.90
2023-04-02T20:40:11.048Z,62.80
2023-04-02T20:42:14.179Z,63.00
2023-04-02T20:44:16.299Z,62.90
2023-04-02T20:46:18.149Z,62.90
2023-04-02T20:48:20.072Z,64.10
2023-04-02T20:50:22.017Z,63.30
2023-04-02T20:52:24.240Z,63.10
2023-04-02T20:54:26.390Z,63.40
2023-04-02T20:56:28.210Z,63.40
2023-04-02T20:58:30.088Z,63.50
2023-04-02T21:00:32.064Z,62.50
2023-04-02T21:02:34.309Z,62.70
2023-04-02T21:04:36.296Z,63.00
2023-04-02T21:06:38.737Z,63.20
2023-04-02T21:08:40.426Z,63.30
2023-04-02T21:10:42.109Z,63.40
2023-04-02T21:12:44.030Z,63.40
2023-04-02T21:14:46.013Z,63.50
2023-04-02T21:16:47.821Z,63.70
2023-04-02T21:18:50.753Z,63.70
2023-04-02T21:20:55.954Z,63.80
2023-04-02T21:22:57.636Z,63.50
2023-04-02T21:24:59.443Z,63.60
2023-04-02T21:27:01.307Z,63.60
2023-04-02T21:29:03.547Z,63.60
2023-04-02T21:31:12.854Z,63.60
2023-04-02T21:33:14.623Z,63.30
2023-04-02T21:35:16.366Z,63.40
2023-04-02T21:37:18.178Z,63.10
2023-04-02T21:39:21.525Z,63.40
2023-04-02T21:41:27.440Z,63.20
2023-04-02T21:43:29.192Z,63.20
2023-04-02T21:45:30.994Z,63.30
2023-04-02T21:47:32.757Z,62.90
2023-04-02T21:49:34.429Z,62.80
2023-04-02T21:51:36.840Z,63.00
2023-04-02T21:53:39.067Z,62.70
2023-04-02T21:55:40.922Z,62.70
2023-04-02T21:57:42.674Z,62.50
2023-04-02T21:59:44.448Z,62.70
2023-04-02T22:01:48.215Z,62.10
2023-04-02T22:03:50.139Z,62.20
2023-04-02T22:06:05.121Z,62.50
2023-04-02T22:08:06.831Z,62.50
2023-04-02T22:10:08.584Z,62.30
2023-04-02T22:12:11.501Z,62.40
2023-04-02T22:14:14.074Z,62.50
2023-04-02T22:16:17.424Z,62.50
2023-04-02T22:18:19.149Z,62.30
2023-04-02T22:20:20.814Z,62.30
2023-04-02T22:22:22.595Z,62.50
2023-04-02T22:24:25.215Z,62.40
2023-04-02T22:26:27.511Z,62.40
2023-04-02T22:28:29.277Z,62.50
2023-04-02T22:30:33.105Z,62.50
2023-04-02T22:32:35.461Z,62.50
2023-04-02T22:34:39.422Z,62.40
2023-04-02T22:36:41.229Z,62.40
2023-04-02T22:38:43.192Z,61.60
2023-04-02T22:40:45.262Z,61.80
2023-04-02T22:42:48.023Z,62.20
2023-04-02T22:44:50.727Z,62.30
2023-04-02T22:46:52.464Z,62.20
2023-04-02T22:48:54.611Z,62.20
2023-04-02T22:50:56.513Z,62.20
2023-04-02T22:52:58.263Z,62.30
2023-04-02T22:55:00.361Z,62.10
2023-04-02T22:57:02.083Z,62.00
2023-04-02T22:59:03.763Z,62.20
2023-04-02T23:01:06.386Z,62.40
2023-04-02T23:03:08.126Z,62.40
2023-04-02T23:05:10.825Z,62.50
2023-04-02T23:07:12.482Z,62.80
2023-04-02T23:09:14.082Z,62.60
2023-04-02T23:11:23.298Z,62.70
2023-04-02T23:13:25.171Z,62.80
2023-04-02T23:15:26.857Z,62.80
2023-04-02T23:17:28.529Z,62.80
2023-04-02T23:19:30.209Z,62.80
2023-04-02T23:21:31.980Z,62.80
2023-04-02T23:23:34.178Z,62.80
2023-04-02T23:25:38.144Z,62.80
2023-04-02T23:27:40.077Z,63.80
2023-04-02T23:29:41.764Z,63.10
2023-04-02T23:31:44.776Z,63.10
2023-04-02T23:33:46.605Z,63.00
2023-04-02T23:35:48.369Z,63.00
2023-04-02T23:37:50.056Z,63.00
2023-04-02T23:39:51.704Z,62.70
2023-04-02T23:41:53.380Z,62.90
2023-04-02T23:43:55.921Z,62.90
2023-04-02T23:45:57.679Z,62.90
2023-04-02T23:47:59.375Z,62.90
2023-04-02T23:50:01.025Z,62.90
2023-04-02T23:52:02.705Z,63.00
2023-04-02T23:54:04.384Z,62.90
2023-04-02T23:56:06.280Z,62.90
2023-04-02T23:58:07.986Z,62.90
